Time;durP1;ratioP1;P1;durP2;ratioP2;P2;SDS_P1;SDS_P2;PMS_P1;PMS_P2;Temp;Humidity;BMP_temperature;BMP_pressure;BME280_temperature;BME280_humidity;BME280_pressure;Samples;Min_cycle;Max_cycle;Signal;HPM_P1;HPM_P2
2022/02/08 00:00:49;;;;;;;0.50;0.38;;;;;;;6.24;98.30;101493.63;4958749;28;20050;-71
2022/02/08 00:03:15;;;;;;;0.20;0.20;;;;;;;6.28;97.46;101485.78;4938305;28;20049;-71
2022/02/08 00:05:42;;;;;;;1.38;0.73;;;;;;;6.31;97.31;101482.47;4946117;28;20037;-70
2022/02/08 00:08:08;;;;;;;0.40;0.40;;;;;;;6.34;96.72;101481.88;4939043;28;20023;-70
2022/02/08 00:10:33;;;;;;;5.78;0.40;;;;;;;6.26;97.08;101482.63;4940880;28;20396;-71
2022/02/08 00:12:59;;;;;;;0.60;0.60;;;;;;;6.33;97.04;101491.78;4938329;28;20043;-71
2022/02/08 00:15:25;;;;;;;0.57;0.40;;;;;;;6.28;96.52;101477.75;4944934;29;20072;-70
2022/02/08 00:17:51;;;;;;;1.45;0.85;;;;;;;6.18;97.13;101469.97;4935936;28;20050;-71
2022/02/08 00:20:17;;;;;;;1.67;0.40;;;;;;;6.21;96.42;101472.06;4952561;28;20031;-71
2022/02/08 00:22:42;;;;;;;5.55;0.65;;;;;;;6.17;96.28;101471.88;4942000;28;20061;-71
2022/02/08 00:25:08;;;;;;;0.40;0.30;;;;;;;6.15;96.84;101462.59;4943561;29;20471;-71
2022/02/08 00:27:34;;;;;;;2.85;0.57;;;;;;;6.17;96.35;101461.19;4942764;28;20031;-71
2022/02/08 00:29:59;;;;;;;0.65;0.35;;;;;;;6.23;96.11;101451.91;4926050;29;20036;-71
2022/02/08 00:32:25;;;;;;;1.08;0.75;;;;;;;6.17;95.79;101455.84;4953587;28;20063;-71
2022/02/08 00:34:50;;;;;;;0.65;0.35;;;;;;;6.11;96.14;101459.72;4958025;28;20177;-70
2022/02/08 00:37:16;;;;;;;2.00;0.40;;;;;;;6.12;96.13;101453.28;4938980;28;20050;-70
2022/02/08 00:39:42;;;;;;;0.82;0.38;;;;;;;6.16;95.84;101456.13;4958995;28;20083;-70
2022/02/08 00:42:10;;;;;;;1.20;0.43;;;;;;;6.17;95.41;101463.88;4932675;28;20091;-70
2022/02/08 00:45:11;;;;;;;0.30;0.30;;;;;;;6.21;95.99;101454.13;4941810;29;20477;-70
2022/02/08 00:49:51;;;;;;;1.00;0.60;;;;;;;6.21;94.85;101445.31;4953185;28;20033;-69
2022/02/08 00:52:17;;;;;;;0.93;0.43;;;;;;;6.21;95.19;101435.41;4938773;28;20043;-72
2022/02/08 00:54:48;;;;;;;0.47;0.40;;;;;;;6.21;95.27;101438.06;4942868;28;20070;-69
2022/02/08 00:57:16;;;;;;;0.30;0.30;;;;;;;6.23;95.12;101430.53;4954465;28;20709;-70
2022/02/08 00:59:42;;;;;;;6.32;0.65;;;;;;;6.20;95.17;101425.81;4957207;28;20106;-70
2022/02/08 01:02:09;;;;;;;0.52;0.35;;;;;;;6.13;95.36;101427.34;4940030;29;20050;-70
2022/02/08 01:04:35;;;;;;;0.50;0.50;;;;;;;6.04;95.88;101429.94;4941712;28;20034;-70
2022/02/08 01:07:03;;;;;;;2.53;0.60;;;;;;;6.05;95.41;101425.41;4958896;28;20090;-70
2022/02/08 01:12:06;;;;;;;2.03;0.32;;;;;;;6.04;95.09;101413.13;4938660;28;20031;-70
2022/02/08 01:14:37;;;;;;;1.92;0.80;;;;;;;6.07;95.96;101412.50;4943247;28;20431;-70
2022/02/08 01:17:04;;;;;;;6.57;1.02;;;;;;;6.01;95.66;101409.19;4943656;28;20126;-70
2022/02/08 01:19:30;;;;;;;1.65;0.40;;;;;;;5.98;96.35;101409.00;4937202;28;20444;-70
2022/02/08 01:21:56;;;;;;;0.70;0.60;;;;;;;6.02;96.32;101404.63;4957906;28;20396;-70
2022/02/08 01:24:21;;;;;;;1.02;0.60;;;;;;;6.00;96.11;101406.81;4961024;28;20039;-70
2022/02/08 01:26:55;;;;;;;1.02;0.70;;;;;;;6.04;95.99;101408.56;4947245;28;20023;-70
2022/02/08 01:29:35;;;;;;;1.48;0.70;;;;;;;6.01;96.14;101403.84;4956271;28;20039;-70
2022/02/08 01:32:16;;;;;;;8.95;0.80;;;;;;;6.09;96.07;101391.63;4965037;28;20039;-70
2022/02/08 01:42:40;;;;;;;2.13;0.68;;;;;;;6.10;96.93;101385.94;4961534;28;20070;-70
2022/02/08 01:45:25;;;;;;;3.85;0.88;;;;;;;6.09;96.70;101387.06;4963045;28;20023;-70
2022/02/08 01:48:06;;;;;;;0.20;0.20;;;;;;;6.12;96.71;101386.44;4947338;28;20038;-70
2022/02/08 01:50:34;;;;;;;1.45;0.80;;;;;;;6.08;96.70;101387.34;4964769;28;20027;-71
2022/02/08 01:53:00;;;;;;;1.20;0.47;;;;;;;6.07;96.87;101383.91;4945374;28;20122;-70
2022/02/08 01:55:34;;;;;;;0.73;0.60;;;;;;;6.15;96.62;101374.34;4934690;28;20057;-70
2022/02/08 01:58:02;;;;;;;0.50;0.40;;;;;;;6.12;97.14;101369.59;4964308;28;20648;-70
2022/02/08 02:00:29;;;;;;;5.85;0.52;;;;;;;6.19;96.89;101361.94;4961695;28;20035;-70
2022/02/08 02:02:55;;;;;;;2.35;0.68;;;;;;;6.16;96.93;101371.38;4943860;28;20444;-71
2022/02/08 02:05:31;;;;;;;0.75;0.50;;;;;;;6.10;97.42;101364.56;4941790;28;20557;-71
2022/02/08 02:07:58;;;;;;;3.50;0.80;;;;;;;6.08;97.95;101366.75;4959893;28;20805;-71
2022/02/08 02:10:25;;;;;;;1.73;0.60;;;;;;;6.13;98.32;101360.50;4946641;28;20027;-71
2022/02/08 02:13:00;;;;;;;1.05;0.43;;;;;;;6.25;97.71;101350.03;4946953;28;20065;-70
2022/02/08 02:15:33;;;;;;;1.73;0.82;;;;;;;6.16;97.58;101352.66;4960198;28;20038;-71
2022/02/08 02:17:59;;;;;;;1.67;0.70;;;;;;;6.16;98.40;101338.47;4963960;28;20356;-70
2022/02/08 02:20:29;;;;;;;1.08;0.70;;;;;;;6.14;99.17;101344.16;4953092;28;20036;-70
2022/02/08 02:22:54;;;;;;;3.17;0.80;;;;;;;6.10;99.51;101340.50;4963836;28;20488;-70
2022/02/08 02:25:26;;;;;;;2.85;0.63;;;;;;;6.08;100.00;101339.22;4963318;28;20023;-71
2022/02/08 02:27:55;;;;;;;1.13;0.75;;;;;;;6.04;100.00;101336.38;4964013;28;20023;-70
2022/02/08 02:30:22;;;;;;;1.77;1.20;;;;;;;6.12;100.00;101330.28;4964658;28;20035;-70
2022/02/08 02:32:51;;;;;;;1.90;0.60;;;;;;;6.10;100.00;101323.66;4947337;28;20030;-71
2022/02/08 02:35:17;;;;;;;2.08;0.80;;;;;;;6.17;100.00;101319.47;4957949;28;20046;-70
2022/02/08 02:37:43;;;;;;;2.08;1.85;;;;;;;6.18;100.00;101314.91;4941634;28;20497;-70
2022/02/08 02:40:09;;;;;;;2.03;0.90;;;;;;;6.11;100.00;101309.22;4961572;28;20034;-70
2022/02/08 02:42:35;;;;;;;6.25;1.27;;;;;;;6.10;100.00;101311.09;4949841;28;20043;-70
2022/02/08 02:45:03;;;;;;;3.08;1.13;;;;;;;6.04;100.00;101311.56;4944492;28;20047;-70
2022/02/08 02:47:29;;;;;;;1.63;0.90;;;;;;;6.01;100.00;101312.16;4941123;28;20027;-70
2022/02/08 02:49:55;;;;;;;4.05;1.08;;;;;;;5.99;100.00;101311.69;4955071;28;20113;-70
2022/02/08 02:52:21;;;;;;;6.03;1.10;;;;;;;6.08;100.00;101309.81;4957850;28;20130;-70
2022/02/08 02:54:52;;;;;;;0.90;0.88;;;;;;;5.96;100.00;101301.63;4957702;28;20035;-70
2022/02/08 02:57:21;;;;;;;2.55;0.90;;;;;;;6.03;100.00;101299.28;4960658;28;20481;-70
2022/02/08 02:59:49;;;;;;;1.77;1.15;;;;;;;6.12;100.00;101306.22;4960958;28;20058;-70
2022/02/08 03:02:36;;;;;;;1.35;1.08;;;;;;;6.18;100.00;101296.97;4956173;28;20042;-70
2022/02/08 03:19:01;;;;;;;1.60;1.13;;;;;;;6.03;100.00;101297.41;4942070;28;20039;-71
2022/02/08 03:21:26;;;;;;;5.05;1.73;;;;;;;5.98;100.00;101283.38;4949011;28;20074;-70
2022/02/08 03:23:54;;;;;;;2.38;1.27;;;;;;;6.02;100.00;101287.03;4958609;28;20480;-70
2022/02/08 03:26:20;;;;;;;8.40;1.90;;;;;;;6.14;100.00;101298.69;4958174;28;20039;-70
2022/02/08 03:29:21;;;;;;;1.38;1.25;;;;;;;6.20;100.00;101294.00;4959613;28;20130;-70
2022/02/08 03:31:47;;;;;;;4.80;1.63;;;;;;;6.12;100.00;101292.06;4895993;29;20194;-70
2022/02/08 03:34:13;;;;;;;3.53;1.50;;;;;;;6.24;100.00;101297.63;4906436;29;20165;-70
2022/02/08 03:36:43;;;;;;;2.65;1.45;;;;;;;6.23;100.00;101290.72;4920876;29;20127;-70
2022/02/08 03:39:19;;;;;;;6.13;1.73;;;;;;;6.18;100.00;101275.59;4892596;29;20467;-70
2022/02/08 03:42:07;;;;;;;2.55;1.48;;;;;;;6.21;100.00;101263.50;4937824;29;20061;-70
2022/02/08 03:44:37;;;;;;;3.67;1.50;;;;;;;6.23;100.00;101255.94;4935968;29;20039;-70
2022/02/08 03:47:07;;;;;;;3.30;1.50;;;;;;;6.25;100.00;101251.84;4922506;29;20537;-70
2022/02/08 03:49:36;;;;;;;6.78;1.83;;;;;;;6.31;100.00;101253.28;4924546;29;20039;-70
2022/02/08 03:52:05;;;;;;;7.60;2.13;;;;;;;6.34;100.00;101246.53;4909346;29;20086;-70
2022/02/08 03:54:36;;;;;;;6.25;2.70;;;;;;;6.42;100.00;101250.31;4921535;29;20079;-70
2022/02/08 03:57:06;;;;;;;7.43;2.00;;;;;;;6.50;100.00;101252.22;4922550;29;20055;-71
2022/02/08 03:59:32;;;;;;;4.18;1.90;;;;;;;6.53;100.00;101240.91;4922819;29;20055;-71
2022/02/08 04:04:35;;;;;;;3.75;1.98;;;;;;;6.60;100.00;101244.69;4928935;29;20524;-71
2022/02/08 04:07:08;;;;;;;5.20;2.05;;;;;;;6.65;100.00;101247.22;4922650;29;20115;-71
2022/02/08 04:09:34;;;;;;;4.53;2.83;;;;;;;6.62;100.00;101263.13;4951039;28;20046;-70
2022/02/08 04:12:06;;;;;;;2.38;1.65;;;;;;;6.56;100.00;101259.00;4947510;28;20031;-71
2022/02/08 04:17:05;;;;;;;8.73;2.03;;;;;;;6.66;100.00;101258.72;4926703;29;20409;-71
2022/02/08 04:19:43;;;;;;;5.90;1.75;;;;;;;6.61;100.00;101240.91;4939415;28;20123;-70
2022/02/08 04:33:40;;;;;;;5.60;2.63;;;;;;;6.70;100.00;101233.69;4936747;28;20098;-71
2022/02/08 04:40:58;;;;;;;4.63;2.65;;;;;;;6.76;100.00;101227.06;4940507;28;20074;-70
2022/02/08 04:45:58;;;;;;;7.35;2.25;;;;;;;6.84;100.00;101234.31;4953932;28;21591;-71
2022/02/08 04:48:32;;;;;;;8.95;3.30;;;;;;;6.82;100.00;101235.72;4958904;28;20026;-70
2022/02/08 04:51:14;;;;;;;7.55;2.58;;;;;;;6.90;100.00;101227.72;4951852;28;20122;-70
2022/02/08 04:53:47;;;;;;;3.42;1.85;;;;;;;6.87;100.00;101217.63;4933183;28;20031;-70
2022/02/08 04:56:24;;;;;;;8.82;2.88;;;;;;;6.86;100.00;101221.41;4937051;28;20047;-70
2022/02/08 04:59:05;;;;;;;4.10;2.35;;;;;;;6.89;100.00;101223.44;4932555;28;20057;-70
2022/02/08 05:02:02;;;;;;;6.45;3.45;;;;;;;6.97;100.00;101225.34;4936981;28;20044;-70
2022/02/08 05:45:31;;;;;;;4.50;2.40;;;;;;;7.27;100.00;101216.34;4943629;28;20102;-71
2022/02/08 05:47:55;;;;;;;8.85;2.75;;;;;;;7.37;100.00;101206.38;4934098;29;20433;-71
2022/02/08 05:53:02;;;;;;;4.65;2.47;;;;;;;7.52;100.00;101219.25;4935081;28;20035;-71
2022/02/08 05:55:29;;;;;;;5.65;3.00;;;;;;;7.52;100.00;101200.50;4951310;28;20028;-71
2022/02/08 05:57:55;;;;;;;8.70;2.53;;;;;;;7.44;100.00;101187.91;4938729;28;20420;-71
2022/02/08 06:00:26;;;;;;;9.50;3.40;;;;;;;7.44;100.00;101204.78;4936427;28;20043;-71
2022/02/08 06:03:04;;;;;;;7.28;2.70;;;;;;;7.35;100.00;101189.84;4949017;28;20058;-70
2022/02/08 06:05:38;;;;;;;6.72;3.10;;;;;;;7.43;100.00;101179.09;4953645;28;21015;-71
2022/02/08 06:08:04;;;;;;;4.72;2.53;;;;;;;7.46;100.00;101164.25;4928463;28;20067;-71
2022/02/08 06:10:31;;;;;;;8.82;3.45;;;;;;;7.43;100.00;101165.72;4943983;28;20043;-71
2022/02/08 06:12:57;;;;;;;6.43;3.22;;;;;;;7.43;100.00;101170.28;4959368;28;20081;-70
2022/02/08 06:15:38;;;;;;;12.40;3.45;;;;;;;7.50;100.00;101173.22;4959932;28;20102;-70
2022/02/08 06:18:04;;;;;;;5.25;2.55;;;;;;;7.48;100.00;101194.19;4944700;28;20035;-70
2022/02/08 06:20:31;;;;;;;8.25;3.13;;;;;;;7.51;100.00;101188.22;4956467;28;20037;-71
2022/02/08 06:22:56;;;;;;;9.00;3.15;;;;;;;7.57;100.00;101194.97;4940397;28;20047;-71
2022/02/08 06:25:21;;;;;;;7.45;3.53;;;;;;;7.50;100.00;101187.41;4943817;28;20035;-71
2022/02/08 06:27:50;;;;;;;6.20;2.47;;;;;;;7.56;100.00;101196.88;4942250;28;20118;-71
2022/02/08 06:30:18;;;;;;;10.20;3.15;;;;;;;7.52;100.00;101190.56;4949471;28;20484;-71
2022/02/08 06:32:44;;;;;;;10.32;2.75;;;;;;;7.64;100.00;101196.06;4944653;28;20031;-70
2022/02/08 06:35:33;;;;;;;6.47;3.67;;;;;;;7.59;100.00;101190.09;4943184;28;20035;-71
2022/02/08 06:37:59;;;;;;;4.97;2.85;;;;;;;7.59;100.00;101200.81;4934850;28;20483;-71
2022/02/08 06:40:25;;;;;;;6.65;3.10;;;;;;;7.62;100.00;101190.22;4942770;28;20035;-71
2022/02/08 06:42:50;;;;;;;7.88;3.45;;;;;;;7.71;100.00;101208.94;4942765;28;20039;-71
2022/02/08 06:45:17;;;;;;;12.07;3.63;;;;;;;7.70;100.00;101197.44;4955821;28;20047;-71
2022/02/08 06:47:46;;;;;;;6.07;3.03;;;;;;;7.73;100.00;101196.00;4942528;28;20035;-71
2022/02/08 06:50:12;;;;;;;8.95;4.07;;;;;;;7.74;100.00;101182.25;4929071;28;20054;-71
2022/02/08 06:52:38;;;;;;;16.20;4.05;;;;;;;7.73;100.00;101182.59;4943128;28;20051;-71
2022/02/08 06:55:08;;;;;;;5.18;2.88;;;;;;;7.72;100.00;101187.19;4942085;28;20035;-71
2022/02/08 06:57:48;;;;;;;12.60;3.10;;;;;;;7.69;100.00;101184.34;4960348;28;20497;-72
2022/02/08 07:00:37;;;;;;;9.57;3.90;;;;;;;7.70;100.00;101202.00;4945886;28;20043;-72
2022/02/08 07:03:04;;;;;;;10.20;2.95;;;;;;;7.80;100.00;101201.66;4932491;29;20235;-71
2022/02/08 07:05:30;;;;;;;6.40;2.83;;;;;;;7.86;100.00;101195.00;4934895;29;20054;-72
2022/02/08 07:07:55;;;;;;;9.02;3.72;;;;;;;7.83;100.00;101203.69;4924018;29;20107;-71
2022/02/08 07:10:21;;;;;;;11.07;3.53;;;;;;;7.85;100.00;101196.09;4941612;28;20130;-72
2022/02/08 07:12:47;;;;;;;14.93;4.13;;;;;;;7.88;100.00;101190.09;4938504;28;20064;-72
2022/02/08 07:15:14;;;;;;;8.98;3.80;;;;;;;7.90;100.00;101182.50;4932933;29;20050;-71
2022/02/08 07:17:40;;;;;;;11.13;4.00;;;;;;;7.90;100.00;101195.91;4938076;29;20106;-72
2022/02/08 07:20:06;;;;;;;13.35;4.32;;;;;;;7.91;100.00;101192.13;4937905;28;20042;-71
2022/02/08 07:22:32;;;;;;;10.88;3.38;;;;;;;8.08;100.00;101184.00;4925635;28;20043;-72
2022/02/08 07:25:00;;;;;;;9.27;3.83;;;;;;;8.12;100.00;101179.56;4941353;28;20042;-71
2022/02/08 07:27:26;;;;;;;5.43;2.88;;;;;;;8.14;100.00;101182.72;4943264;29;20142;-71
2022/02/08 07:29:53;;;;;;;10.82;3.55;;;;;;;8.17;100.00;101188.19;4942999;29;20197;-71
2022/02/08 07:32:27;;;;;;;11.85;4.22;;;;;;;8.14;100.00;101188.06;4933342;29;20122;-71
2022/02/08 07:35:04;;;;;;;12.82;3.78;;;;;;;8.06;100.00;101183.53;4928225;29;20039;-71
2022/02/08 07:37:46;;;;;;;10.77;3.67;;;;;;;8.08;100.00;101163.34;4941310;29;20070;-71
2022/02/08 07:40:27;;;;;;;9.55;3.72;;;;;;;8.10;100.00;101174.53;4937457;28;20078;-71
2022/02/08 07:42:53;;;;;;;7.45;3.20;;;;;;;8.08;100.00;101175.94;4951597;28;20039;-71
2022/02/08 07:45:19;;;;;;;7.15;3.17;;;;;;;8.17;100.00;101171.31;4956435;28;20090;-71
2022/02/08 07:47:44;;;;;;;10.43;3.38;;;;;;;8.21;100.00;101180.28;4942323;28;20027;-71
2022/02/08 07:50:09;;;;;;;13.13;4.05;;;;;;;8.14;100.00;101163.94;4939244;28;20062;-71
2022/02/08 07:52:35;;;;;;;9.65;3.67;;;;;;;8.16;100.00;101175.91;4945161;28;20043;-71
2022/02/08 07:55:00;;;;;;;10.77;4.13;;;;;;;8.13;100.00;101179.22;4944616;28;20034;-71
2022/02/08 07:57:26;;;;;;;7.55;3.65;;;;;;;8.05;100.00;101171.25;4957290;28;20039;-71
2022/02/08 07:59:51;;;;;;;7.75;3.40;;;;;;;8.12;100.00;101160.78;4944002;28;20119;-72
2022/02/08 08:02:16;;;;;;;8.23;4.35;;;;;;;8.10;100.00;101160.31;4940889;28;20039;-71
2022/02/08 08:04:42;;;;;;;9.73;3.60;;;;;;;8.02;100.00;101156.59;4940517;28;20492;-72
2022/02/08 08:07:07;;;;;;;15.63;4.43;;;;;;;8.10;100.00;101165.69;4936702;28;20099;-72
2022/02/08 08:09:39;;;;;;;9.25;3.97;;;;;;;7.98;100.00;101169.06;4941001;28;20488;-71
2022/02/08 08:12:05;;;;;;;11.85;3.38;;;;;;;8.02;100.00;101167.31;4939317;28;20027;-71
2022/02/08 08:14:32;;;;;;;7.85;3.33;;;;;;;8.07;100.00;101169.78;4942378;28;20101;-72
2022/02/08 08:17:25;;;;;;;14.27;4.20;;;;;;;8.13;100.00;101170.38;4944925;28;20046;-72
2022/02/08 08:19:46;;;;;;;7.65;3.45;;;;;;;8.17;100.00;101165.94;4942216;28;20074;-71
2022/02/08 08:22:12;;;;;;;9.43;4.05;;;;;;;8.11;100.00;101159.19;4943055;28;20134;-71
2022/02/08 08:24:37;;;;;;;11.65;4.03;;;;;;;8.20;100.00;101157.25;4945883;28;20126;-71
2022/02/08 08:27:05;;;;;;;8.75;3.47;;;;;;;8.25;100.00;101161.66;4949109;28;20031;-71
2022/02/08 08:29:30;;;;;;;10.43;3.95;;;;;;;8.17;100.00;101171.31;4957417;28;20030;-71
2022/02/08 08:31:56;;;;;;;6.63;3.55;;;;;;;8.23;100.00;101163.88;4951021;28;20026;-71
2022/02/08 08:34:22;;;;;;;8.35;3.58;;;;;;;8.23;100.00;101161.19;4940973;28;20030;-71
2022/02/08 08:36:50;;;;;;;8.77;3.55;;;;;;;8.19;100.00;101161.84;4936115;28;20106;-71
2022/02/08 08:39:19;;;;;;;7.32;3.15;;;;;;;8.25;100.00;101164.34;4942897;28;20130;-70
2022/02/08 08:41:51;;;;;;;8.80;3.33;;;;;;;8.27;100.00;101167.50;4946850;28;20483;-69
2022/02/08 08:44:38;;;;;;;7.43;3.42;;;;;;;8.29;100.00;101158.00;4940941;28;20567;-69
2022/02/08 08:50:06;;;;;;;7.00;3.08;;;;;;;8.39;100.00;101171.03;4940345;28;20102;-70
2022/02/08 08:53:07;;;;;;;7.32;2.88;;;;;;;8.45;100.00;101168.94;4954402;28;20680;-70
2022/02/08 08:55:23;;;;;;;;;;;;;;;8.52;100.00;101169.19;4947805;28;20061;-70
2022/02/08 08:57:48;;;;;;;7.38;2.88;;;;;;;8.57;100.00;101166.34;4949014;28;19922;-72
2022/02/08 09:00:14;;;;;;;7.63;3.72;;;;;;;8.59;100.00;101164.09;4956774;28;20130;-72
2022/02/08 09:02:39;;;;;;;8.07;3.10;;;;;;;8.64;100.00;101177.31;4939263;28;20178;-71
2022/02/08 09:05:09;;;;;;;5.45;2.85;;;;;;;8.61;100.00;101172.63;4947875;28;20129;-71
2022/02/08 09:07:36;;;;;;;6.35;2.60;;;;;;;8.67;100.00;101165.94;4945569;28;20031;-71
2022/02/08 09:10:03;;;;;;;3.88;2.30;;;;;;;8.69;100.00;101163.72;4948471;28;20503;-71
2022/02/08 09:18:11;;;;;;;10.05;2.53;;;;;;;8.67;100.00;101187.41;4940980;28;20047;-72
2022/02/08 09:25:50;;;;;;;4.55;1.83;;;;;;;8.82;100.00;101174.19;4941744;28;20039;-71
2022/02/08 09:30:50;;;;;;;4.45;1.88;;;;;;;8.73;100.00;101170.75;4948339;28;20030;-71
2022/02/08 09:33:15;;;;;;;6.22;2.80;;;;;;;8.75;100.00;101154.34;4951445;28;20035;-73
2022/02/08 09:35:43;;;;;;;4.03;1.77;;;;;;;8.90;100.00;101162.53;4949523;28;20042;-71
2022/02/08 09:38:08;;;;;;;6.30;2.25;;;;;;;8.99;100.00;101157.09;4950026;28;20074;-71
2022/02/08 09:40:34;;;;;;;4.68;1.85;;;;;;;9.05;100.00;101145.84;4954964;28;20034;-72
2022/02/08 09:43:02;;;;;;;2.95;1.80;;;;;;;9.13;100.00;101154.13;4969024;28;20567;-71
2022/02/08 09:45:30;;;;;;;4.85;2.67;;;;;;;9.02;100.00;101161.81;4948112;28;20106;-71
2022/02/08 09:48:00;;;;;;;5.40;2.10;;;;;;;9.06;100.00;101168.88;4951355;28;20026;-72
2022/02/08 09:50:29;;;;;;;8.70;2.20;;;;;;;9.05;100.00;101188.81;4957323;28;20042;-71
2022/02/08 09:52:58;;;;;;;3.85;1.40;;;;;;;8.97;100.00;101178.94;4954765;28;20089;-70
2022/02/08 09:55:27;;;;;;;3.28;1.80;;;;;;;8.99;100.00;101174.00;4944501;28;21001;-71
2022/02/08 09:57:53;;;;;;;4.30;1.60;;;;;;;9.06;100.00;101168.88;4945735;28;20039;-70
2022/02/08 10:00:19;;;;;;;5.22;1.50;;;;;;;9.15;100.00;101155.38;4945178;28;20039;-72
2022/02/08 10:02:45;;;;;;;5.20;1.70;;;;;;;9.19;100.00;101168.91;4942161;28;20035;-71
2022/02/08 10:05:13;;;;;;;2.05;1.25;;;;;;;9.22;100.00;101177.09;4946653;28;20046;-71
2022/02/08 10:07:39;;;;;;;6.45;1.58;;;;;;;9.26;100.00;101186.06;4936339;28;20043;-72
2022/02/08 10:10:07;;;;;;;3.65;1.90;;;;;;;9.29;100.00;101187.31;4945813;28;20134;-71
2022/02/08 10:23:59;;;;;;;2.25;1.63;;;;;;;9.29;100.00;101200.75;4934082;28;20031;-71
2022/02/08 10:26:43;;;;;;;1.58;1.05;;;;;;;9.41;100.00;101206.13;4952611;28;20034;-72
2022/02/08 10:29:25;;;;;;;2.67;1.48;;;;;;;9.31;100.00;101211.94;4949976;28;20509;-71
2022/02/08 10:40:12;;;;;;;1.67;1.20;;;;;;;9.35;100.00;101212.84;4950739;28;20035;-70
2022/02/08 10:42:40;;;;;;;2.67;1.40;;;;;;;9.35;100.00;101212.84;4955679;28;20042;-70
2022/02/08 10:45:20;;;;;;;1.95;1.05;;;;;;;9.49;100.00;101222.19;4956318;28;20027;-69
2022/02/08 10:47:52;;;;;;;3.97;1.25;;;;;;;9.42;100.00;101219.25;4932920;28;20044;-69
2022/02/08 10:50:17;;;;;;;1.42;1.20;;;;;;;9.50;100.00;101221.06;4959106;28;20038;-70
2022/02/08 10:52:44;;;;;;;1.80;1.17;;;;;;;9.60;100.00;101222.53;4954192;28;20102;-69
2022/02/08 11:00:36;;;;;;;2.28;1.13;;;;;;;9.56;100.00;101214.34;4939964;28;20062;-71
2022/02/08 11:03:06;;;;;;;2.03;1.08;;;;;;;9.49;100.00;101214.09;4941743;28;20062;-70
2022/02/08 11:08:53;;;;;;;3.00;1.35;;;;;;;9.47;100.00;101218.25;4942267;28;20074;-69
2022/02/08 11:11:16;;;;;;;1.73;1.17;;;;;;;9.56;100.00;101214.34;4945016;28;20054;-69
2022/02/08 11:25:11;;;;;;;1.98;1.38;;;;;;;9.65;100.00;101227.69;4949103;28;20448;-70
2022/02/08 11:27:47;;;;;;;1.42;1.27;;;;;;;9.72;100.00;101239.47;4935654;28;20049;-70
2022/02/08 11:30:18;;;;;;;2.30;1.30;;;;;;;9.67;100.00;101231.63;4970917;28;20043;-71
2022/02/08 11:42:50;;;;;;;2.60;1.42;;;;;;;9.67;100.00;101238.91;4935294;28;20055;-70
2022/02/08 11:44:48;;;;;;;1.15;0.85;;;;;;;9.76;100.00;101244.97;4937497;28;20464;-67
2022/02/08 11:52:30;;;;;;;3.17;1.30;;;;;;;9.74;100.00;101253.38;4943281;29;20046;-70
2022/02/08 12:07:24;;;;;;;6.55;1.50;;;;;;;9.77;100.00;101244.66;4946494;28;20685;-71
2022/02/08 12:10:12;;;;;;;4.22;1.75;;;;;;;9.79;100.00;101253.13;4951941;28;20042;-70
2022/02/08 12:49:06;;;;;;;4.65;1.60;;;;;;;9.88;100.00;101267.28;4924323;28;20043;-73
2022/02/08 12:52:50;;;;;;;2.08;1.00;;;;;;;9.77;100.00;101274.22;4944042;28;20046;-71
2022/02/08 13:00:15;;;;;;;1.40;0.85;;;;;;;9.85;100.00;101276.00;4944817;28;20121;-71
2022/02/08 13:14:58;;;;;;;0.82;0.73;;;;;;;9.90;100.00;101288.47;4946176;28;20035;-74
2022/02/08 14:05:58;;;;;;;2.25;1.10;;;;;;;10.03;100.00;101314.25;4940350;28;20042;-73
2022/02/08 14:18:39;;;;;;;0.95;0.77;;;;;;;10.09;100.00;101325.59;4947738;28;20094;-70
2022/02/08 15:09:14;;;;;;;0.85;0.80;;;;;;;10.15;100.00;101338.53;4946665;28;20089;-68
2022/02/08 15:11:57;;;;;;;1.15;0.63;;;;;;;10.18;100.00;101337.84;4942677;28;20116;-70
2022/02/08 15:14:26;;;;;;;3.20;0.57;;;;;;;10.19;100.00;101344.03;4944849;28;20749;-70
2022/02/08 15:16:54;;;;;;;0.85;0.73;;;;;;;10.09;100.00;101344.44;4949737;28;20480;-71
2022/02/08 15:19:20;;;;;;;0.80;0.80;;;;;;;10.16;100.00;101345.50;4952758;28;20043;-70
2022/02/08 15:21:45;;;;;;;1.65;0.88;;;;;;;10.13;100.00;101338.09;4942713;28;20045;-71
2022/02/08 15:24:13;;;;;;;1.40;1.17;;;;;;;10.21;100.00;101344.50;4934481;28;20046;-69
2022/02/08 15:26:45;;;;;;;0.93;0.68;;;;;;;10.20;100.00;101348.31;4943542;28;20389;-70
2022/02/08 15:29:10;;;;;;;0.63;0.55;;;;;;;10.13;100.00;101343.47;4939762;28;20043;-69
2022/02/08 15:31:36;;;;;;;2.05;0.60;;;;;;;10.17;100.00;101348.97;4957001;28;20416;-72
2022/02/08 15:34:01;;;;;;;0.70;0.68;;;;;;;10.15;100.00;101351.19;4955596;28;20031;-69
2022/02/08 15:36:27;;;;;;;1.23;0.82;;;;;;;10.08;100.00;101354.44;4946171;28;20031;-69
2022/02/08 15:38:57;;;;;;;0.98;0.75;;;;;;;9.98;100.00;101361.03;4942411;28;20031;-71
2022/02/08 15:41:23;;;;;;;0.95;0.77;;;;;;;9.96;100.00;101367.84;4934183;28;20527;-69
2022/02/08 15:43:50;;;;;;;0.80;0.70;;;;;;;9.91;100.00;101366.16;4943377;28;20034;-70
2022/02/08 15:46:23;;;;;;;1.00;0.63;;;;;;;9.98;100.00;101371.00;4946162;28;20146;-70
2022/02/08 15:48:50;;;;;;;0.85;0.80;;;;;;;10.08;100.00;101367.09;4943733;28;20047;-70
2022/02/08 15:51:37;;;;;;;1.17;0.73;;;;;;;10.09;100.00;101372.13;4959939;28;20049;-69
2022/02/08 16:07:20;;;;;;;1.60;0.77;;;;;;;10.06;100.00;101404.31;4957057;28;20062;-69
2022/02/08 16:15:31;;;;;;;2.00;0.70;;;;;;;10.18;100.00;101407.84;4943484;28;20035;-70
2022/02/08 16:18:13;;;;;;;1.55;0.95;;;;;;;10.20;100.00;101408.28;4950615;28;20506;-69
2022/02/08 16:50:31;;;;;;;1.80;1.00;;;;;;;10.12;100.00;101430.72;4947842;28;20035;-70
2022/02/08 16:53:10;;;;;;;;;;;;;;;10.13;100.00;101429.59;4948670;28;20094;-69
2022/02/08 16:55:59;;;;;;;0.77;0.68;;;;;;;10.18;100.00;101434.00;4945044;28;19918;-69
2022/02/08 17:01:01;;;;;;;1.00;0.80;;;;;;;10.18;100.00;101436.69;4942789;28;20053;-69
2022/02/08 17:03:32;;;;;;;0.50;0.50;;;;;;;10.14;100.00;101444.63;4945510;28;20112;-70
2022/02/08 17:05:57;;;;;;;0.40;0.40;;;;;;;10.17;100.00;101449.34;4957955;28;20392;-70
2022/02/08 17:08:24;;;;;;;0.45;0.43;;;;;;;10.13;100.00;101450.31;4943288;28;20023;-69
2022/02/08 17:10:52;;;;;;;0.93;0.50;;;;;;;10.20;100.00;101454.03;4942034;28;20047;-69
2022/02/08 17:13:37;;;;;;;1.45;0.40;;;;;;;10.13;100.00;101463.78;4943545;28;20097;-69
2022/02/08 17:48:03;;;;;;;1.60;1.40;;;;;;;9.85;100.00;101474.31;4943933;28;20118;-71
2022/02/08 17:50:29;;;;;;;1.17;0.77;;;;;;;9.80;100.00;101474.50;4943223;28;20043;-69
2022/02/08 17:52:55;;;;;;;2.28;1.13;;;;;;;9.75;100.00;101480.06;4955673;28;20276;-69
2022/02/08 17:55:21;;;;;;;3.03;1.00;;;;;;;9.74;100.00;101479.28;4944395;28;20047;-69
2022/02/08 17:57:49;;;;;;;1.10;0.77;;;;;;;9.73;100.00;101479.63;4947455;28;20077;-70
2022/02/08 18:00:16;;;;;;;1.15;0.80;;;;;;;9.72;100.00;101478.03;4953894;28;20043;-68
2022/02/08 18:02:43;;;;;;;0.80;0.80;;;;;;;9.69;100.00;101481.38;4949075;28;20118;-70
2022/02/08 18:05:11;;;;;;;1.00;0.70;;;;;;;9.73;100.00;101482.31;4955013;28;20045;-68
2022/02/08 18:07:37;;;;;;;0.85;0.75;;;;;;;9.77;100.00;101494.00;4948588;28;20031;-68
2022/02/08 18:10:04;;;;;;;2.35;1.00;;;;;;;9.75;100.00;101488.16;4946520;28;20038;-69
2022/02/08 18:12:29;;;;;;;1.30;0.52;;;;;;;9.61;100.00;101490.28;4945129;28;20047;-68
2022/02/08 18:14:59;;;;;;;2.00;1.00;;;;;;;9.67;100.00;101487.09;4927576;28;20353;-69
2022/02/08 18:17:32;;;;;;;2.50;0.75;;;;;;;9.66;100.00;101485.50;4947652;28;20046;-69
2022/02/08 18:20:07;;;;;;;2.60;0.98;;;;;;;9.73;100.00;101485.78;4936059;28;20035;-69
2022/02/08 18:28:07;;;;;;;1.35;0.68;;;;;;;9.63;100.00;101482.69;4947296;28;20154;-70
2022/02/08 19:03:33;;;;;;;1.30;0.77;;;;;;;9.63;100.00;101506.91;4941886;28;20046;-69
2022/02/08 19:11:56;;;;;;;1.75;0.95;;;;;;;9.82;100.00;101526.06;4951072;28;20035;-69
2022/02/08 19:19:43;;;;;;;2.38;0.90;;;;;;;9.80;100.00;101536.34;4948372;28;20039;-69
2022/02/08 19:22:09;;;;;;;0.93;0.75;;;;;;;9.69;100.00;101527.91;4956530;28;20051;-68
2022/02/08 19:24:35;;;;;;;2.38;0.90;;;;;;;9.75;100.00;101531.97;4952381;28;20117;-69
2022/02/08 19:27:01;;;;;;;3.10;1.20;;;;;;;9.70;100.00;101536.72;4957366;28;20438;-70
2022/02/08 19:29:34;;;;;;;1.58;1.23;;;;;;;9.78;100.00;101538.59;4951228;28;20448;-70